sensor_id;sensor_type;location;lat;lon;timestamp;pressure;altitude;pressure_sealevel;temperature;humidity
79123;BME280;68526;44.600;26.032;2024-03-22T00:00:03;100929.19;;;3.13;82.93
79123;BME280;68526;44.600;26.032;2024-03-22T00:00:20;100939.78;;;3.19;83.13
79123;BME280;68526;44.600;26.032;2024-03-22T00:00:36;100940.59;;;3.20;83.18
79123;BME280;68526;44.600;26.032;2024-03-22T00:00:52;100937.63;;;3.16;82.97
79123;BME280;68526;44.600;26.032;2024-03-22T00:01:09;100939.25;;;3.17;83.00
79123;BME280;68526;44.600;26.032;2024-03-22T00:01:26;100950.34;;;3.16;83.02
79123;BME280;68526;44.600;26.032;2024-03-22T00:01:43;100938.16;;;3.18;83.24
79123;BME280;68526;44.600;26.032;2024-03-22T00:01:59;100944.66;;;3.17;82.82
79123;BME280;68526;44.600;26.032;2024-03-22T00:02:15;100938.16;;;3.18;82.93
79123;BME280;68526;44.600;26.032;2024-03-22T00:02:31;100935.94;;;3.10;83.00
79123;BME280;68526;44.600;26.032;2024-03-22T00:02:47;100945.75;;;3.16;82.79
79123;BME280;68526;44.600;26.032;2024-03-22T00:03:04;100943.31;;;3.20;83.19
79123;BME280;68526;44.600;26.032;2024-03-22T00:03:20;100946.03;;;3.20;83.08
79123;BME280;68526;44.600;26.032;2024-03-22T00:03:36;100949.00;;;3.18;82.87
79123;BME280;68526;44.600;26.032;2024-03-22T00:03:52;100955.75;;;3.16;82.90
79123;BME280;68526;44.600;26.032;2024-03-22T00:04:08;100952.28;;;3.20;83.16
79123;BME280;68526;44.600;26.032;2024-03-22T00:04:24;100944.41;;;3.19;82.68
79123;BME280;68526;44.600;26.032;2024-03-22T00:04:40;100942.50;;;3.19;82.82
79123;BME280;68526;44.600;26.032;2024-03-22T00:04:57;100942.50;;;3.19;82.96
79123;BME280;68526;44.600;26.032;2024-03-22T00:05:13;100945.78;;;3.21;83.03
79123;BME280;68526;44.600;26.032;2024-03-22T00:05:29;100942.25;;;3.21;82.90
79123;BME280;68526;44.600;26.032;2024-03-22T00:05:45;100946.03;;;3.20;82.61
79123;BME280;68526;44.600;26.032;2024-03-22T00:06:01;100945.22;;;3.19;82.93
79123;BME280;68526;44.600;26.032;2024-03-22T00:06:18;100940.94;;;3.24;82.68
79123;BME280;68526;44.600;26.032;2024-03-22T00:06:34;100942.00;;;3.22;82.41
79123;BME280;68526;44.600;26.032;2024-03-22T00:06:50;100940.09;;;3.23;82.54
79123;BME280;68526;44.600;26.032;2024-03-22T00:07:06;100940.06;;;3.18;82.70
79123;BME280;68526;44.600;26.032;2024-03-22T00:07:22;100947.91;;;3.19;83.13
79123;BME280;68526;44.600;26.032;2024-03-22T00:07:38;100942.25;;;3.21;83.40
79123;BME280;68526;44.600;26.032;2024-03-22T00:07:56;100943.63;;;3.24;83.25
79123;BME280;68526;44.600;26.032;2024-03-22T00:08:12;100942.00;;;3.22;83.43
79123;BME280;68526;44.600;26.032;2024-03-22T00:08:28;100945.53;;;3.23;83.56
79123;BME280;68526;44.600;26.032;2024-03-22T00:08:44;100947.38;;;3.17;83.79
79123;BME280;68526;44.600;26.032;2024-03-22T00:09:00;100936.28;;;3.19;83.85
79123;BME280;68526;44.600;26.032;2024-03-22T00:09:17;100943.09;;;3.21;83.32
79123;BME280;68526;44.600;26.032;2024-03-22T00:09:33;100942.81;;;3.23;83.31
79123;BME280;68526;44.600;26.032;2024-03-22T00:09:49;100939.03;;;3.24;83.09
79123;BME280;68526;44.600;26.032;2024-03-22T00:10:06;100936.59;;;3.22;83.43
79123;BME280;68526;44.600;26.032;2024-03-22T00:10:22;100936.91;;;3.26;82.88
79123;BME280;68526;44.600;26.032;2024-03-22T00:10:38;100935.00;;;3.27;83.04
79123;BME280;68526;44.600;26.032;2024-03-22T00:10:55;100936.31;;;3.24;83.20
79123;BME280;68526;44.600;26.032;2024-03-22T00:11:11;100938.75;;;3.26;83.20
79123;BME280;68526;44.600;26.032;2024-03-22T00:11:27;100943.63;;;3.24;82.90
79123;BME280;68526;44.600;26.032;2024-03-22T00:11:43;100936.59;;;3.22;83.38
79123;BME280;68526;44.600;26.032;2024-03-22T00:12:00;100940.94;;;3.24;83.15
79123;BME280;68526;44.600;26.032;2024-03-22T00:12:17;100943.38;;;3.25;82.85
79123;BME280;68526;44.600;26.032;2024-03-22T00:12:33;100939.34;;;3.28;83.11
79123;BME280;68526;44.600;26.032;2024-03-22T00:12:49;100930.66;;;3.26;83.13
79123;BME280;68526;44.600;26.032;2024-03-22T00:13:05;100929.88;;;3.30;83.24
79123;BME280;68526;44.600;26.032;2024-03-22T00:13:22;100944.50;;;3.29;83.32
79123;BME280;68526;44.600;26.032;2024-03-22T00:13:38;100936.91;;;3.31;82.81
79123;BME280;68526;44.600;26.032;2024-03-22T00:13:54;100941.53;;;3.31;83.07
79123;BME280;68526;44.600;26.032;2024-03-22T00:14:10;100940.97;;;3.29;83.13
79123;BME280;68526;44.600;26.032;2024-03-22T00:14:27;100939.63;;;3.31;83.17
79123;BME280;68526;44.600;26.032;2024-03-22T00:14:43;100938.81;;;3.31;83.01
79123;BME280;68526;44.600;26.032;2024-03-22T00:14:59;100936.91;;;3.31;82.62
79123;BME280;68526;44.600;26.032;2024-03-22T00:15:15;100942.34;;;3.31;82.88
79123;BME280;68526;44.600;26.032;2024-03-22T00:15:31;100944.50;;;3.29;82.80
79123;BME280;68526;44.600;26.032;2024-03-22T00:15:48;100942.56;;;3.25;83.37
79123;BME280;68526;44.600;26.032;2024-03-22T00:16:06;100944.50;;;3.29;82.98
79123;BME280;68526;44.600;26.032;2024-03-22T00:16:23;100937.72;;;3.27;83.27
79123;BME280;68526;44.600;26.032;2024-03-22T00:16:39;100940.97;;;3.29;83.31
79123;BME280;68526;44.600;26.032;2024-03-22T00:16:55;100939.09;;;3.29;83.43
79123;BME280;68526;44.600;26.032;2024-03-22T00:17:11;100936.38;;;3.29;83.00
79123;BME280;68526;44.600;26.032;2024-03-22T00:17:28;100932.59;;;3.30;83.31
79123;BME280;68526;44.600;26.032;2024-03-22T00:17:46;100936.38;;;3.29;83.38
79123;BME280;68526;44.600;26.032;2024-03-22T00:18:02;100943.41;;;3.30;82.99
79123;BME280;68526;44.600;26.032;2024-03-22T00:18:18;100936.63;;;3.28;82.93
79123;BME280;68526;44.600;26.032;2024-03-22T00:18:34;100937.72;;;3.27;83.17
79123;BME280;68526;44.600;26.032;2024-03-22T00:18:50;100933.06;;;3.22;83.47
79123;BME280;68526;44.600;26.032;2024-03-22T00:19:06;100935.78;;;3.22;83.47
79123;BME280;68526;44.600;26.032;2024-03-22T00:19:24;100938.75;;;3.20;83.11
79123;BME280;68526;44.600;26.032;2024-03-22T00:19:40;100931.94;;;3.18;83.53
79123;BME280;68526;44.600;26.032;2024-03-22T00:19:56;100939.56;;;3.21;83.71
79123;BME280;68526;44.600;26.032;2024-03-22T00:20:12;100942.00;;;3.22;83.23
79123;BME280;68526;44.600;26.032;2024-03-22T00:20:28;100941.94;;;3.17;84.04
79123;BME280;68526;44.600;26.032;2024-03-22T00:20:44;100942.22;;;3.16;84.04
79123;BME280;68526;44.600;26.032;2024-03-22T00:21:00;100942.75;;;3.18;84.38
79123;BME280;68526;44.600;26.032;2024-03-22T00:21:17;100947.63;;;3.16;84.04
79123;BME280;68526;44.600;26.032;2024-03-22T00:21:33;100942.75;;;3.18;84.30
79123;BME280;68526;44.600;26.032;2024-03-22T00:21:49;100943.03;;;3.16;84.08
79123;BME280;68526;44.600;26.032;2024-03-22T00:22:05;100946.28;;;3.18;83.95
79123;BME280;68526;44.600;26.032;2024-03-22T00:22:21;100947.03;;;3.14;84.18
79123;BME280;68526;44.600;26.032;2024-03-22T00:22:38;100941.84;;;3.07;84.04
79123;BME280;68526;44.600;26.032;2024-03-22T00:22:55;100944.88;;;3.11;84.09
79123;BME280;68526;44.600;26.032;2024-03-22T00:23:11;100948.66;;;3.10;84.27
79123;BME280;68526;44.600;26.032;2024-03-22T00:23:27;100948.38;;;3.11;83.97
79123;BME280;68526;44.600;26.032;2024-03-22T00:23:45;100945.94;;;3.10;83.90
79123;BME280;68526;44.600;26.032;2024-03-22T00:24:01;100950.78;;;3.08;84.31
79123;BME280;68526;44.600;26.032;2024-03-22T00:24:17;100947.25;;;3.07;84.04
79123;BME280;68526;44.600;26.032;2024-03-22T00:24:33;100954.88;;;3.10;84.22
79123;BME280;68526;44.600;26.032;2024-03-22T00:24:49;100956.50;;;3.11;84.15
79123;BME280;68526;44.600;26.032;2024-03-22T00:25:06;100953.75;;;3.06;83.64
79123;BME280;68526;44.600;26.032;2024-03-22T00:25:22;100951.59;;;3.08;84.23
79123;BME280;68526;44.600;26.032;2024-03-22T00:25:38;100951.31;;;3.05;84.21
79123;BME280;68526;44.600;26.032;2024-03-22T00:25:54;100952.88;;;3.01;84.67
79123;BME280;68526;44.600;26.032;2024-03-22T00:26:10;100950.50;;;3.04;84.31
79123;BME280;68526;44.600;26.032;2024-03-22T00:26:26;100960.78;;;3.07;84.16
79123;BME280;68526;44.600;26.032;2024-03-22T00:26:44;100953.69;;;3.01;84.40
79123;BME280;68526;44.600;26.032;2024-03-22T00:27:00;100955.31;;;3.02;84.65
79123;BME280;68526;44.600;26.032;2024-03-22T00:27:16;100954.78;;;3.00;84.75
79123;BME280;68526;44.600;26.032;2024-03-22T00:27:32;100962.41;;;3.03;84.81
79123;BME280;68526;44.600;26.032;2024-03-22T00:27:48;100960.78;;;3.07;84.35
79123;BME280;68526;44.600;26.032;2024-03-22T00:28:04;100956.16;;;3.03;84.45
79123;BME280;68526;44.600;26.032;2024-03-22T00:28:21;100961.31;;;3.04;84.77
79123;BME280;68526;44.600;26.032;2024-03-22T00:28:37;100954.50;;;3.02;84.29
79123;BME280;68526;44.600;26.032;2024-03-22T00:28:53;100954.41;;;2.91;84.51
79123;BME280;68526;44.600;26.032;2024-03-22T00:29:09;100954.97;;;2.93;84.81
79123;BME280;68526;44.600;26.032;2024-03-22T00:29:25;100955.59;;;3.01;84.64
79123;BME280;68526;44.600;26.032;2024-03-22T00:29:41;100959.38;;;3.00;84.76
79123;BME280;68526;44.600;26.032;2024-03-22T00:29:58;100953.69;;;3.01;84.23
79123;BME280;68526;44.600;26.032;2024-03-22T00:30:15;100959.91;;;3.02;84.56
79123;BME280;68526;44.600;26.032;2024-03-22T00:30:31;100947.41;;;2.95;84.44
79123;BME280;68526;44.600;26.032;2024-03-22T00:30:47;100949.81;;;2.92;84.89
79123;BME280;68526;44.600;26.032;2024-03-22T00:31:03;100945.72;;;2.89;84.97
79123;BME280;68526;44.600;26.032;2024-03-22T00:31:19;100952.59;;;2.97;84.81
79123;BME280;68526;44.600;26.032;2024-03-22T00:31:37;100944.97;;;2.94;84.88
79123;BME280;68526;44.600;26.032;2024-03-22T00:31:53;100953.41;;;2.98;84.93
79123;BME280;68526;44.600;26.032;2024-03-22T00:32:09;100954.16;;;2.93;84.81
79123;BME280;68526;44.600;26.032;2024-03-22T00:32:25;100959.25;;;2.89;85.07
79123;BME280;68526;44.600;26.032;2024-03-22T00:32:42;100947.88;;;2.87;85.27
79123;BME280;68526;44.600;26.032;2024-03-22T00:33:00;100953.84;;;2.89;85.16
79123;BME280;68526;44.600;26.032;2024-03-22T00:33:16;100950.56;;;2.87;85.45
79123;BME280;68526;44.600;26.032;2024-03-22T00:33:32;100952.22;;;2.88;85.41
79123;BME280;68526;44.600;26.032;2024-03-22T00:33:48;100944.84;;;2.84;85.42
79123;BME280;68526;44.600;26.032;2024-03-22T00:34:05;100946.78;;;2.88;85.46
79123;BME280;68526;44.600;26.032;2024-03-22T00:34:21;100947.34;;;2.90;85.67
79123;BME280;68526;44.600;26.032;2024-03-22T00:34:37;100949.69;;;2.82;85.69
79123;BME280;68526;44.600;26.032;2024-03-22T00:34:53;100952.66;;;2.80;85.88
79123;BME280;68526;44.600;26.032;2024-03-22T00:35:09;100950.97;;;2.74;85.92
79123;BME280;68526;44.600;26.032;2024-03-22T00:35:25;100951.22;;;2.73;86.34
79123;BME280;68526;44.600;26.032;2024-03-22T00:35:41;100944.22;;;2.77;86.06
79123;BME280;68526;44.600;26.032;2024-03-22T00:35:57;100957.00;;;2.81;86.18
79123;BME280;68526;44.600;26.032;2024-03-22T00:36:13;100945.84;;;2.78;86.17
79123;BME280;68526;44.600;26.032;2024-03-22T00:36:30;100941.25;;;2.78;85.96
79123;BME280;68526;44.600;26.032;2024-03-22T00:36:46;100948.88;;;2.81;86.15
79123;BME280;68526;44.600;26.032;2024-03-22T00:37:03;100936.44;;;2.80;86.30
79123;BME280;68526;44.600;26.032;2024-03-22T00:37:19;100942.94;;;2.84;85.99
79123;BME280;68526;44.600;26.032;2024-03-22T00:37:35;100942.41;;;2.82;86.01
79123;BME280;68526;44.600;26.032;2024-03-22T00:37:51;100939.09;;;2.75;86.20
79123;BME280;68526;44.600;26.032;2024-03-22T00:38:07;100933.22;;;2.83;86.47
79123;BME280;68526;44.600;26.032;2024-03-22T00:38:23;100936.72;;;2.84;86.09
79123;BME280;68526;44.600;26.032;2024-03-22T00:38:39;100939.97;;;2.81;86.15
79123;BME280;68526;44.600;26.032;2024-03-22T00:38:55;100936.72;;;2.84;86.64
79123;BME280;68526;44.600;26.032;2024-03-22T00:39:12;100932.09;;;2.79;86.82
79123;BME280;68526;44.600;26.032;2024-03-22T00:39:28;100937.81;;;2.83;86.59
79123;BME280;68526;44.600;26.032;2024-03-22T00:39:44;100927.19;;;2.76;86.59
79123;BME280;68526;44.600;26.032;2024-03-22T00:40:01;100934.81;;;2.79;87.03
79123;BME280;68526;44.600;26.032;2024-03-22T00:40:17;100938.06;;;2.81;86.77
79123;BME280;68526;44.600;26.032;2024-03-22T00:40:34;100954.31;;;2.81;86.56
79123;BME280;68526;44.600;26.032;2024-03-22T00:40:50;100942.13;;;2.84;86.32
79123;BME280;68526;44.600;26.032;2024-03-22T00:41:06;100947.06;;;2.87;86.40
79123;BME280;68526;44.600;26.032;2024-03-22T00:41:22;100938.13;;;2.86;86.05
79123;BME280;68526;44.600;26.032;2024-03-22T00:41:38;100945.72;;;2.89;85.96
79123;BME280;68526;44.600;26.032;2024-03-22T00:41:54;100959.78;;;2.86;86.00
79123;BME280;68526;44.600;26.032;2024-03-22T00:42:10;100950.31;;;2.89;85.80
79123;BME280;68526;44.600;26.032;2024-03-22T00:42:26;100947.06;;;2.87;85.86
79123;BME280;68526;44.600;26.032;2024-03-22T00:42:43;100957.06;;;2.86;86.00
79123;BME280;68526;44.600;26.032;2024-03-22T00:42:59;100951.91;;;2.85;86.35
79123;BME280;68526;44.600;26.032;2024-03-22T00:43:16;100955.94;;;2.82;86.62
79123;BME280;68526;44.600;26.032;2024-03-22T00:43:32;100956.00;;;2.87;86.31
79123;BME280;68526;44.600;26.032;2024-03-22T00:43:48;100946.78;;;2.88;86.14
79123;BME280;68526;44.600;26.032;2024-03-22T00:44:04;100952.72;;;2.85;86.23
79123;BME280;68526;44.600;26.032;2024-03-22T00:44:20;100955.47;;;2.90;85.84
79123;BME280;68526;44.600;26.032;2024-03-22T00:44:36;100959.78;;;2.86;86.19
79123;BME280;68526;44.600;26.032;2024-03-22T00:44:52;100958.16;;;2.85;86.47
79123;BME280;68526;44.600;26.032;2024-03-22T00:45:10;100957.88;;;2.87;86.05
79123;BME280;68526;44.600;26.032;2024-03-22T00:45:26;100954.91;;;2.88;86.15
79123;BME280;68526;44.600;26.032;2024-03-22T00:45:44;100954.66;;;2.90;85.76
79123;BME280;68526;44.600;26.032;2024-03-22T00:46:00;100962.53;;;2.91;85.90
79123;BME280;68526;44.600;26.032;2024-03-22T00:46:18;100955.78;;;2.94;85.91
79123;BME280;68526;44.600;26.032;2024-03-22T00:46:36;100955.22;;;2.92;85.51
79123;BME280;68526;44.600;26.032;2024-03-22T00:46:52;100964.16;;;2.92;85.61
79123;BME280;68526;44.600;26.032;2024-03-22T00:47:09;100956.31;;;2.91;85.75
79123;BME280;68526;44.600;26.032;2024-03-22T00:47:25;100957.69;;;2.93;85.75
79123;BME280;68526;44.600;26.032;2024-03-22T00:47:41;100960.38;;;2.93;85.42
79123;BME280;68526;44.600;26.032;2024-03-22T00:47:57;100962.00;;;2.94;85.80
79123;BME280;68526;44.600;26.032;2024-03-22T00:48:13;100955.53;;;2.95;85.44
79123;BME280;68526;44.600;26.032;2024-03-22T00:48:29;100957.41;;;2.95;85.48
79123;BME280;68526;44.600;26.032;2024-03-22T00:48:45;100960.13;;;2.95;85.31
79123;BME280;68526;44.600;26.032;2024-03-22T00:49:01;100949.56;;;2.93;85.50
79123;BME280;68526;44.600;26.032;2024-03-22T00:49:17;100960.94;;;2.95;85.33
79123;BME280;68526;44.600;26.032;2024-03-22T00:49:34;100955.28;;;2.97;85.16
79123;BME280;68526;44.600;26.032;2024-03-22T00:49:50;100959.88;;;2.97;85.44
79123;BME280;68526;44.600;26.032;2024-03-22T00:50:07;100956.34;;;2.96;85.18
79123;BME280;68526;44.600;26.032;2024-03-22T00:50:23;100951.44;;;2.93;85.15
79123;BME280;68526;44.600;26.032;2024-03-22T00:50:39;100956.34;;;2.96;85.17
79123;BME280;68526;44.600;26.032;2024-03-22T00:50:55;100953.41;;;2.98;84.91
79123;BME280;68526;44.600;26.032;2024-03-22T00:51:11;100953.41;;;2.98;84.97
79123;BME280;68526;44.600;26.032;2024-03-22T00:51:28;100952.31;;;2.99;84.95
79123;BME280;68526;44.600;26.032;2024-03-22T00:51:44;100958.00;;;2.97;84.97
79123;BME280;68526;44.600;26.032;2024-03-22T00:52:03;100933.22;;;2.83;85.07
79123;BME280;68526;44.600;26.032;2024-03-22T00:52:19;100957.41;;;2.95;85.53
79123;BME280;68526;44.600;26.032;2024-03-22T00:52:35;100960.94;;;2.95;85.23
79123;BME280;68526;44.600;26.032;2024-03-22T00:52:51;100956.09;;;2.98;85.17
79123;BME280;68526;44.600;26.032;2024-03-22T00:53:08;100954.78;;;3.00;85.39
79123;BME280;68526;44.600;26.032;2024-03-22T00:53:25;100952.59;;;2.97;85.30
79123;BME280;68526;44.600;26.032;2024-03-22T00:53:41;100955.03;;;2.99;84.94
79123;BME280;68526;44.600;26.032;2024-03-22T00:53:57;100954.41;;;2.91;85.52
79123;BME280;68526;44.600;26.032;2024-03-22T00:54:14;100950.06;;;2.90;85.67
79123;BME280;68526;44.600;26.032;2024-03-22T00:54:30;100946.78;;;2.88;85.62
79123;BME280;68526;44.600;26.032;2024-03-22T00:54:46;100962.16;;;2.83;86.00
79123;BME280;68526;44.600;26.032;2024-03-22T00:55:02;100942.41;;;2.82;86.09
79123;BME280;68526;44.600;26.032;2024-03-22T00:55:18;100956.19;;;2.81;86.31
79123;BME280;68526;44.600;26.032;2024-03-22T00:55:36;100945.97;;;2.88;86.75
79123;BME280;68526;44.600;26.032;2024-03-22T00:55:53;100956.81;;;2.88;86.60
79123;BME280;68526;44.600;26.032;2024-03-22T00:56:09;100943.00;;;2.89;86.34
79123;BME280;68526;44.600;26.032;2024-03-22T00:56:25;100949.44;;;2.83;86.70
79123;BME280;68526;44.600;26.032;2024-03-22T00:56:41;100954.63;;;2.85;86.86
79123;BME280;68526;44.600;26.032;2024-03-22T00:56:57;100950.53;;;2.82;86.70
79123;BME280;68526;44.600;26.032;2024-03-22T00:57:13;100950.78;;;2.81;86.62
79123;BME280;68526;44.600;26.032;2024-03-22T00:57:29;100947.00;;;2.82;86.80
79123;BME280;68526;44.600;26.032;2024-03-22T00:57:45;100943.22;;;2.83;86.55
79123;BME280;68526;44.600;26.032;2024-03-22T00:58:02;100947.25;;;2.80;86.49
79123;BME280;68526;44.600;26.032;2024-03-22T00:58:18;100952.41;;;2.82;86.82
79123;BME280;68526;44.600;26.032;2024-03-22T00:58:37;100948.06;;;2.81;86.53
79123;BME280;68526;44.600;26.032;2024-03-22T00:58:54;100955.38;;;2.80;86.57
79123;BME280;68526;44.600;26.032;2024-03-22T00:59:10;100943.78;;;2.85;86.67
79123;BME280;68526;44.600;26.032;2024-03-22T00:59:26;100944.34;;;2.87;86.70
79123;BME280;68526;44.600;26.032;2024-03-22T00:59:42;100950.25;;;2.84;86.56
79123;BME280;68526;44.600;26.032;2024-03-22T00:59:58;100944.84;;;2.84;86.67
79123;BME280;68526;44.600;26.032;2024-03-22T01:00:15;100947.56;;;2.84;86.43
79123;BME280;68526;44.600;26.032;2024-03-22T01:00:32;100949.75;;;2.87;86.35
79123;BME280;68526;44.600;26.032;2024-03-22T01:00:48;100945.97;;;2.88;86.20
79123;BME280;68526;44.600;26.032;2024-03-22T01:01:04;100948.69;;;2.88;86.60
79123;BME280;68526;44.600;26.032;2024-03-22T01:01:20;100947.06;;;2.87;86.42
79123;BME280;68526;44.600;26.032;2024-03-22T01:01:37;100948.44;;;2.89;86.37
79123;BME280;68526;44.600;26.032;2024-03-22T01:01:53;100945.50;;;2.91;86.29
79123;BME280;68526;44.600;26.032;2024-03-22T01:02:10;100960.88;;;2.90;86.46
79123;BME280;68526;44.600;26.032;2024-03-22T01:02:27;100950.31;;;2.89;86.25
79123;BME280;68526;44.600;26.032;2024-03-22T01:02:43;100950.56;;;2.87;86.40
79123;BME280;68526;44.600;26.032;2024-03-22T01:02:59;100948.34;;;2.79;86.98
79123;BME280;68526;44.600;26.032;2024-03-22T01:03:16;100954.84;;;2.83;86.88
79123;BME280;68526;44.600;26.032;2024-03-22T01:03:32;100954.78;;;2.78;87.27
79123;BME280;68526;44.600;26.032;2024-03-22T01:03:48;100955.63;;;2.79;86.88
79123;BME280;68526;44.600;26.032;2024-03-22T01:04:04;100954.50;;;2.75;87.03
79123;BME280;68526;44.600;26.032;2024-03-22T01:04:20;100956.31;;;2.69;87.09
79123;BME280;68526;44.600;26.032;2024-03-22T01:04:36;100951.22;;;2.73;87.22
79123;BME280;68526;44.600;26.032;2024-03-22T01:04:52;100955.31;;;2.75;87.32
79123;BME280;68526;44.600;26.032;2024-03-22T01:05:08;100952.34;;;2.77;87.01
79123;BME280;68526;44.600;26.032;2024-03-22T01:05:24;100952.66;;;2.80;86.80
79123;BME280;68526;44.600;26.032;2024-03-22T01:05:41;100954.75;;;2.73;87.00
79123;BME280;68526;44.600;26.032;2024-03-22T01:05:58;100961.53;;;2.76;87.28
79123;BME280;68526;44.600;26.032;2024-03-22T01:06:15;100959.16;;;2.79;86.79
79123;BME280;68526;44.600;26.032;2024-03-22T01:06:31;100958.63;;;2.82;87.06
79123;BME280;68526;44.600;26.032;2024-03-22T01:06:47;100961.09;;;2.84;87.21
79123;BME280;68526;44.600;26.032;2024-03-22T01:07:04;100952.72;;;2.85;86.97
79123;BME280;68526;44.600;26.032;2024-03-22T01:07:20;100955.44;;;2.85;86.78
79123;BME280;68526;44.600;26.032;2024-03-22T01:07:37;100956.00;;;2.87;86.68
79123;BME280;68526;44.600;26.032;2024-03-22T01:07:53;100957.63;;;2.88;86.62
79123;BME280;68526;44.600;26.032;2024-03-22T01:08:09;100951.13;;;2.89;86.46
79123;BME280;68526;44.600;26.032;2024-03-22T01:08:25;100953.84;;;2.89;86.32
79123;BME280;68526;44.600;26.032;2024-03-22T01:08:41;100956.88;;;2.93;86.17
79123;BME280;68526;44.600;26.032;2024-03-22T01:08:57;100949.00;;;2.91;86.32
79123;BME280;68526;44.600;26.032;2024-03-22T01:09:14;100947.59;;;2.89;86.91
79123;BME280;68526;44.600;26.032;2024-03-22T01:09:30;100952.75;;;2.90;86.43
79123;BME280;68526;44.600;26.032;2024-03-22T01:09:47;100952.53;;;2.92;86.79
79123;BME280;68526;44.600;26.032;2024-03-22T01:10:03;100939.75;;;2.87;86.71
79123;BME280;68526;44.600;26.032;2024-03-22T01:10:20;100951.13;;;2.89;86.57
79123;BME280;68526;44.600;26.032;2024-03-22T01:10:36;100947.34;;;2.90;86.41
79123;BME280;68526;44.600;26.032;2024-03-22T01:10:52;100953.03;;;2.89;86.41
79123;BME280;68526;44.600;26.032;2024-03-22T01:11:08;100950.91;;;2.91;86.52
79123;BME280;68526;44.600;26.032;2024-03-22T01:11:24;100958.75;;;2.92;86.36
79123;BME280;68526;44.600;26.032;2024-03-22T01:11:40;100953.34;;;2.92;86.51
79123;BME280;68526;44.600;26.032;2024-03-22T01:11:56;100950.63;;;2.92;86.56
79123;BME280;68526;44.600;26.032;2024-03-22T01:12:12;100946.59;;;2.95;86.08
79123;BME280;68526;44.600;26.032;2024-03-22T01:12:29;100947.66;;;2.94;86.05
79123;BME280;68526;44.600;26.032;2024-03-22T01:12:46;100946.31;;;2.91;86.28
79123;BME280;68526;44.600;26.032;2024-03-22T01:13:02;100940.25;;;2.84;86.14
79123;BME280;68526;44.600;26.032;2024-03-22T01:13:19;100953.59;;;2.91;86.03
79123;BME280;68526;44.600;26.032;2024-03-22T01:13:35;100948.19;;;2.91;86.20
79123;BME280;68526;44.600;26.032;2024-03-22T01:13:51;100949.25;;;2.90;86.08
79123;BME280;68526;44.600;26.032;2024-03-22T01:14:07;100947.59;;;2.89;86.32
79123;BME280;68526;44.600;26.032;2024-03-22T01:14:23;100947.06;;;2.87;86.35
79123;BME280;68526;44.600;26.032;2024-03-22T01:14:39;100954.34;;;2.86;86.31
79123;BME280;68526;44.600;26.032;2024-03-22T01:14:55;100943.53;;;2.86;86.52
79123;BME280;68526;44.600;26.032;2024-03-22T01:15:11;100952.72;;;2.85;86.56
79123;BME280;68526;44.600;26.032;2024-03-22T01:15:27;100956.00;;;2.87;86.17
79123;BME280;68526;44.600;26.032;2024-03-22T01:15:43;100952.72;;;2.85;86.30
79123;BME280;68526;44.600;26.032;2024-03-22T01:16:01;100944.03;;;2.83;86.50
79123;BME280;68526;44.600;26.032;2024-03-22T01:16:17;100947.31;;;2.85;86.74
79123;BME280;68526;44.600;26.032;2024-03-22T01:16:34;100944.28;;;2.82;86.24
79123;BME280;68526;44.600;26.032;2024-03-22T01:16:52;100950.25;;;2.84;86.49
79123;BME280;68526;44.600;26.032;2024-03-22T01:17:08;100944.63;;;2.85;86.24
79123;BME280;68526;44.600;26.032;2024-03-22T01:17:24;100945.97;;;2.88;86.08
79123;BME280;68526;44.600;26.032;2024-03-22T01:17:40;100950.56;;;2.87;86.33
79123;BME280;68526;44.600;26.032;2024-03-22T01:17:56;100946.78;;;2.88;86.06
79123;BME280;68526;44.600;26.032;2024-03-22T01:18:12;100937.94;;;2.71;86.28
79123;BME280;68526;44.600;26.032;2024-03-22T01:18:29;100949.09;;;2.75;86.42
79123;BME280;68526;44.600;26.032;2024-03-22T01:18:45;100946.44;;;2.80;86.19
79123;BME280;68526;44.600;26.032;2024-03-22T01:19:01;100946.44;;;2.80;86.30
79123;BME280;68526;44.600;26.032;2024-03-22T01:19:17;100950.41;;;2.72;86.39
79123;BME280;68526;44.600;26.032;2024-03-22T01:19:33;100948.50;;;2.73;86.59
79123;BME280;68526;44.600;26.032;2024-03-22T01:19:49;100945.25;;;2.71;86.37
79123;BME280;68526;44.600;26.032;2024-03-22T01:20:06;100950.41;;;2.72;86.83
79123;BME280;68526;44.600;26.032;2024-03-22T01:20:22;100936.00;;;2.66;86.99
79123;BME280;68526;44.600;26.032;2024-03-22T01:20:39;100944.16;;;2.72;86.49
79123;BME280;68526;44.600;26.032;2024-03-22T01:20:55;100948.00;;;2.76;86.21
79123;BME280;68526;44.600;26.032;2024-03-22T01:21:12;100946.66;;;2.73;86.11
79123;BME280;68526;44.600;26.032;2024-03-22T01:21:28;100954.50;;;2.75;86.34
79123;BME280;68526;44.600;26.032;2024-03-22T01:21:44;100940.44;;;2.78;86.29
79123;BME280;68526;44.600;26.032;2024-03-22T01:22:00;100954.25;;;2.76;86.19
79123;BME280;68526;44.600;26.032;2024-03-22T01:22:17;100949.56;;;2.72;86.19
79123;BME280;68526;44.600;26.032;2024-03-22T01:22:33;100944.44;;;2.70;86.21
79123;BME280;68526;44.600;26.032;2024-03-22T01:22:49;100946.38;;;2.75;85.86
79123;BME280;68526;44.600;26.032;2024-03-22T01:23:05;100949.28;;;2.68;86.05
79123;BME280;68526;44.600;26.032;2024-03-22T01:23:21;100942.28;;;2.72;86.17
79123;BME280;68526;44.600;26.032;2024-03-22T01:23:37;100945.25;;;2.71;85.80
79123;BME280;68526;44.600;26.032;2024-03-22T01:23:53;100952.28;;;2.72;86.25
79123;BME280;68526;44.600;26.032;2024-03-22T01:24:09;100948.28;;;2.74;85.98
79123;BME280;68526;44.600;26.032;2024-03-22T01:24:27;100960.66;;;2.70;86.42
79123;BME280;68526;44.600;26.032;2024-03-22T01:24:43;100955.00;;;2.72;85.68
79123;BME280;68526;44.600;26.032;2024-03-22T01:24:59;100952.28;;;2.72;86.16
79123;BME280;68526;44.600;26.032;2024-03-22T01:25:15;100943.63;;;2.70;85.86